Time;durP1;ratioP1;P1;durP2;ratioP2;P2;SDS_P1;SDS_P2;PMS_P1;PMS_P2;Temp;Humidity;BMP_temperature;BMP_pressure;BME280_temperature;BME280_humidity;BME280_pressure;Samples;Min_cycle;Max_cycle;Signal;HPM_P1;HPM_P2
2023/01/04 00:01:12;;;;;;;11.35;7.10;;;;;;;6.54;74.22;101890.03;4195777;28;20043;-66
2023/01/04 00:03:15;;;;;;;10.65;6.93;;;;;;;6.49;74.98;101900.91;4196084;28;20064;-66
2023/01/04 00:05:19;;;;;;;10.65;6.70;;;;;;;6.47;75.05;101912.03;4197848;28;20406;-66
2023/01/04 00:07:22;;;;;;;9.50;6.18;;;;;;;6.44;75.06;101908.41;4198415;28;20044;-66
2023/01/04 00:09:25;;;;;;;12.80;7.65;;;;;;;6.42;74.80;101910.00;4197023;28;20407;-66
2023/01/04 00:11:28;;;;;;;10.32;7.40;;;;;;;6.41;75.02;101905.66;4197886;28;20478;-66
2023/01/04 00:13:31;;;;;;;11.57;6.57;;;;;;;6.35;75.16;101900.16;4197485;28;20561;-66
2023/01/04 00:15:37;;;;;;;12.27;6.93;;;;;;;6.33;75.12;101905.22;4197037;28;20141;-66
2023/01/04 00:17:40;;;;;;;12.73;7.30;;;;;;;6.33;75.19;101902.66;4196866;28;20079;-66
2023/01/04 00:19:42;;;;;;;8.07;6.18;;;;;;;6.31;75.36;101906.84;4197981;28;20098;-66
2023/01/04 00:21:47;;;;;;;9.27;7.07;;;;;;;6.34;74.84;101900.94;4197392;28;20033;-66
2023/01/04 00:23:52;;;;;;;10.18;6.75;;;;;;;6.35;74.90;101898.47;4194155;28;20033;-65
2023/01/04 00:25:55;;;;;;;9.50;6.47;;;;;;;6.33;75.34;101906.94;4189551;28;20044;-66
2023/01/04 00:27:58;;;;;;;11.25;7.53;;;;;;;6.33;75.09;101906.94;4195131;28;20083;-66
2023/01/04 00:30:01;;;;;;;12.57;7.18;;;;;;;6.34;75.38;101900.94;4180101;28;20554;-66
2023/01/04 00:32:04;;;;;;;9.15;5.93;;;;;;;6.34;75.10;101895.78;4196722;28;20035;-66
2023/01/04 00:34:07;;;;;;;10.55;6.85;;;;;;;6.36;75.25;101896.78;4194261;28;20040;-66
2023/01/04 00:36:12;;;;;;;12.23;7.28;;;;;;;6.34;75.03;101890.63;4197911;28;20063;-66
2023/01/04 00:38:16;;;;;;;9.73;6.43;;;;;;;6.30;74.95;101884.41;4197841;28;20072;-66
2023/01/04 00:40:19;;;;;;;13.48;6.82;;;;;;;6.29;74.68;101875.78;4197887;28;20051;-66
2023/01/04 00:42:22;;;;;;;10.15;6.82;;;;;;;6.24;74.96;101872.03;4193348;28;20386;-66
2023/01/04 00:44:25;;;;;;;13.50;6.70;;;;;;;6.23;75.14;101875.41;4196612;28;20036;-66
2023/01/04 00:46:28;;;;;;;10.82;7.10;;;;;;;6.19;74.91;101875.19;4196566;28;20082;-66
2023/01/04 00:48:31;;;;;;;10.55;6.95;;;;;;;6.18;74.89;101866.56;4197874;28;20060;-66
2023/01/04 00:50:39;;;;;;;9.75;6.43;;;;;;;6.16;74.99;101865.56;4197537;28;20040;-66
2023/01/04 00:52:42;;;;;;;9.02;6.53;;;;;;;6.16;75.21;101859.53;4179920;28;20055;-66
2023/01/04 00:54:46;;;;;;;12.35;7.80;;;;;;;6.16;75.23;101867.28;4195769;28;20044;-66
2023/01/04 00:56:49;;;;;;;9.27;6.28;;;;;;;6.13;75.84;101856.78;4195117;28;20572;-66
2023/01/04 00:58:54;;;;;;;14.68;8.35;;;;;;;6.16;75.51;101859.53;4197288;28;20524;-66
2023/01/04 01:01:03;;;;;;;11.98;7.38;;;;;;;6.22;75.33;101853.00;4196540;28;20089;-66
2023/01/04 01:03:07;;;;;;;12.07;7.43;;;;;;;6.24;75.32;101866.00;4196933;28;20039;-66
2023/01/04 01:05:10;;;;;;;12.85;9.00;;;;;;;6.26;75.20;101864.38;4195874;28;20060;-66
2023/01/04 01:07:13;;;;;;;11.73;8.40;;;;;;;6.26;75.53;101859.22;4196305;28;20036;-66
2023/01/04 01:09:17;;;;;;;12.07;8.68;;;;;;;6.21;75.35;101858.09;4197677;28;20047;-66
2023/01/04 01:11:21;;;;;;;10.65;8.25;;;;;;;6.21;75.73;101856.38;4190951;28;20059;-66
2023/01/04 01:13:24;;;;;;;12.00;8.88;;;;;;;6.24;75.71;101856.56;4210516;28;20173;-66
2023/01/04 01:15:27;;;;;;;11.30;8.70;;;;;;;6.21;75.69;101851.22;4197212;28;20028;-66
2023/01/04 01:17:30;;;;;;;11.80;9.13;;;;;;;6.23;75.56;101851.31;4196151;28;20059;-66
2023/01/04 01:19:33;;;;;;;13.00;9.45;;;;;;;6.24;76.02;101850.50;4197460;28;20033;-66
2023/01/04 01:21:36;;;;;;;12.32;9.38;;;;;;;6.25;75.68;101848.00;4196090;28;20052;-66
2023/01/04 01:23:40;;;;;;;19.38;11.20;;;;;;;6.31;75.60;101849.13;4196490;28;20044;-66
2023/01/04 01:25:42;;;;;;;13.05;9.70;;;;;;;6.23;75.72;101838.41;4195880;28;20033;-66
2023/01/04 01:27:47;;;;;;;16.75;11.25;;;;;;;6.21;76.32;101847.75;4189771;28;20120;-66
2023/01/04 01:29:49;;;;;;;15.57;10.95;;;;;;;6.24;75.92;101841.06;4171262;28;20135;-66
2023/01/04 01:31:53;;;;;;;17.30;12.10;;;;;;;6.28;76.26;101849.88;4197081;28;20056;-67
2023/01/04 01:33:57;;;;;;;16.92;10.30;;;;;;;6.25;76.22;101836.78;4195284;28;20117;-66
2023/01/04 01:36:00;;;;;;;18.75;13.20;;;;;;;6.28;76.32;101843.00;4197036;28;20040;-66
2023/01/04 01:38:03;;;;;;;15.30;11.05;;;;;;;6.31;76.51;101846.53;4196940;28;20075;-67
2023/01/04 01:40:07;;;;;;;14.63;11.43;;;;;;;6.32;76.00;101841.47;4194863;28;20033;-65
2023/01/04 01:42:18;;;;;;;18.20;11.85;;;;;;;6.44;76.42;101841.25;4196906;28;20128;-65
2023/01/04 01:44:56;;;;;;;19.83;13.07;;;;;;;6.36;76.47;101840.81;4195209;28;20091;-66
2023/01/04 01:47:00;;;;;;;16.88;13.23;;;;;;;6.29;76.48;101836.13;4181901;28;20047;-66
2023/01/04 01:49:10;;;;;;;16.75;13.23;;;;;;;6.29;76.57;101838.72;4197260;28;20444;-65
2023/01/04 01:51:16;;;;;;;17.65;13.65;;;;;;;6.29;76.83;101830.97;4196987;28;20044;-65
2023/01/04 01:53:20;;;;;;;14.55;11.60;;;;;;;6.28;76.95;101830.09;4195035;28;20504;-65
2023/01/04 01:55:24;;;;;;;19.58;13.00;;;;;;;6.31;77.01;101816.47;4195656;28;20043;-65
2023/01/04 01:57:29;;;;;;;16.55;11.32;;;;;;;6.24;76.97;101820.41;4197258;28;20060;-65
2023/01/04 01:59:34;;;;;;;15.63;11.60;;;;;;;6.28;76.98;101819.75;4179027;28;20044;-65
2023/01/04 02:01:38;;;;;;;16.98;12.75;;;;;;;6.24;77.14;101809.19;4196759;28;20044;-65
2023/01/04 02:03:43;;;;;;;18.05;13.32;;;;;;;6.25;77.04;101806.69;4175774;28;20045;-65
2023/01/04 02:05:49;;;;;;;18.55;13.07;;;;;;;6.29;77.38;101797.41;4195508;28;20040;-65
2023/01/04 02:07:53;;;;;;;14.50;11.85;;;;;;;6.35;76.79;101796.84;4196860;28;20091;-65
2023/01/04 02:09:57;;;;;;;17.63;12.07;;;;;;;6.39;76.90;101796.19;4195384;28;20048;-65
2023/01/04 02:12:00;;;;;;;17.23;12.57;;;;;;;6.44;76.65;101782.72;4194995;28;20036;-65
2023/01/04 02:16:37;;;;;;;16.27;11.95;;;;;;;6.47;76.76;101785.47;4196712;28;20036;-65
2023/01/04 02:18:48;;;;;;;15.57;12.38;;;;;;;6.45;76.45;101779.34;4195613;28;20076;-65
2023/01/04 02:20:55;;;;;;;16.23;11.02;;;;;;;6.47;76.60;101782.88;4195974;28;20043;-65
2023/01/04 02:23:32;;;;;;;16.60;11.95;;;;;;;6.47;76.23;101782.00;4188666;28;20470;-65
2023/01/04 02:26:02;;;;;;;14.65;10.48;;;;;;;6.49;76.49;101780.38;4184587;28;20094;-65
2023/01/04 02:28:16;;;;;;;14.40;10.63;;;;;;;6.51;76.20;101768.41;4190822;28;20413;-65
2023/01/04 02:31:08;;;;;;;17.40;12.85;;;;;;;6.53;76.87;101765.94;4196727;28;20479;-65
2023/01/04 02:33:31;;;;;;;17.15;12.05;;;;;;;6.62;76.41;101766.41;4192887;28;20047;-66
2023/01/04 02:35:43;;;;;;;15.88;10.60;;;;;;;6.52;75.98;101770.19;4192508;28;20045;-65
2023/01/04 02:37:52;;;;;;;13.10;10.05;;;;;;;6.54;76.40;101765.09;4196272;28;20041;-65
2023/01/04 02:40:03;;;;;;;15.82;11.50;;;;;;;6.53;75.73;101766.81;4180257;28;20451;-65
2023/01/04 02:42:12;;;;;;;16.02;12.23;;;;;;;6.54;75.81;101770.28;4180209;28;20041;-66
2023/01/04 02:46:44;;;;;;;14.35;10.82;;;;;;;6.54;75.73;101786.69;4196629;28;20029;-66
2023/01/04 02:51:28;;;;;;;15.05;11.77;;;;;;;6.33;75.87;101781.25;4199897;28;20486;-65
2023/01/04 02:53:35;;;;;;;15.75;10.45;;;;;;;6.37;76.14;101775.44;4197900;28;20485;-65
2023/01/04 02:55:51;;;;;;;14.23;9.60;;;;;;;6.35;76.32;101776.19;4198681;28;20045;-65
2023/01/04 02:58:03;;;;;;;13.60;10.48;;;;;;;6.41;76.17;101772.22;4198558;28;20432;-65
2023/01/04 03:00:27;;;;;;;14.63;10.50;;;;;;;6.45;75.99;101769.00;4197552;28;20043;-65
2023/01/04 03:07:40;;;;;;;14.07;11.40;;;;;;;6.49;76.02;101753.66;4199367;28;20051;-65
2023/01/04 03:09:49;;;;;;;17.10;10.88;;;;;;;6.50;75.57;101746.00;4198256;28;20045;-65
2023/01/04 03:14:22;;;;;;;15.25;10.52;;;;;;;6.61;75.89;101742.25;4181903;28;20430;-65
2023/01/04 03:16:37;;;;;;;16.00;10.38;;;;;;;6.64;75.57;101744.09;4199173;28;20402;-65
2023/01/04 03:18:44;;;;;;;12.63;10.05;;;;;;;6.66;75.99;101736.41;4199205;28;20491;-65
2023/01/04 03:20:50;;;;;;;14.80;10.27;;;;;;;6.64;75.11;101739.84;4198006;28;20041;-65
2023/01/04 03:37:26;;;;;;;11.45;7.75;;;;;;;6.60;75.45;101730.16;4198983;28;20555;-65
2023/01/04 03:49:33;;;;;;;14.40;8.55;;;;;;;6.66;74.86;101708.00;4199018;28;20494;-65
2023/01/04 03:51:38;;;;;;;13.30;8.80;;;;;;;6.69;74.83;101708.16;4197751;28;20033;-66
2023/01/04 03:53:50;;;;;;;10.73;7.57;;;;;;;6.66;75.06;101715.75;4179286;28;20094;-65
2023/01/04 03:55:55;;;;;;;11.60;8.38;;;;;;;6.58;75.12;101702.44;4191118;28;20048;-65
2023/01/04 03:57:59;;;;;;;;;;;;;;;6.63;75.03;101701.88;4199337;28;20127;-65
2023/01/04 04:00:07;;;;;;;10.60;7.20;;;;;;;6.61;74.82;101700.94;4198992;28;20392;-65
2023/01/04 04:02:12;;;;;;;11.63;7.85;;;;;;;6.68;75.17;101693.47;4198843;28;20043;-65
2023/01/04 04:08:57;;;;;;;11.07;6.00;;;;;;;6.55;74.47;101695.44;4190030;28;20067;-65
2023/01/04 04:11:29;;;;;;;10.88;5.85;;;;;;;6.62;74.81;101683.72;4198078;28;20056;-65
2023/01/04 04:13:26;;;;;;;9.35;6.43;;;;;;;6.61;74.47;101688.00;4196327;28;20052;-65
2023/01/04 04:15:28;;;;;;;8.85;5.93;;;;;;;6.65;74.31;101683.88;4198273;28;20059;-65
2023/01/04 04:17:31;;;;;;;9.43;5.75;;;;;;;6.61;74.67;101685.41;4198128;28;20062;-65
2023/01/04 04:19:34;;;;;;;8.77;5.18;;;;;;;6.63;74.62;101691.53;4196985;28;20094;-65
2023/01/04 04:21:37;;;;;;;10.23;6.07;;;;;;;6.64;74.58;101688.16;4188687;28;20449;-65
2023/01/04 04:23:40;;;;;;;8.30;4.90;;;;;;;6.60;74.53;101693.97;4195641;28;20044;-65
2023/01/04 04:25:45;;;;;;;8.45;5.65;;;;;;;6.61;74.09;101698.34;4196974;28;20123;-65
2023/01/04 04:27:48;;;;;;;;;;;;;;;6.62;74.29;101700.09;4198337;28;20090;-65
2023/01/04 04:29:51;;;;;;;11.27;5.80;;;;;;;6.73;74.32;101686.81;4197857;28;19931;-64
2023/01/04 04:31:53;;;;;;;8.63;6.00;;;;;;;6.58;74.05;101690.41;4188814;28;20050;-65
2023/01/04 04:33:56;;;;;;;10.13;5.97;;;;;;;6.56;74.23;101681.72;4197057;28;20508;-65
2023/01/04 04:35:59;;;;;;;8.77;5.75;;;;;;;6.64;74.41;101680.41;4197712;28;20508;-65
2023/01/04 04:38:02;;;;;;;9.07;6.65;;;;;;;6.72;73.31;101682.47;4195363;28;20064;-65
2023/01/04 04:40:07;;;;;;;10.40;7.40;;;;;;;6.68;73.99;101688.31;4196837;28;20193;-65
2023/01/04 04:42:10;;;;;;;11.73;7.38;;;;;;;6.57;73.43;101680.91;4196637;28;20041;-65
2023/01/04 04:44:16;;;;;;;11.00;7.20;;;;;;;6.59;74.17;101684.44;4197270;28;20050;-65
2023/01/04 04:46:19;;;;;;;11.85;8.27;;;;;;;6.59;73.67;101678.41;4194744;28;20039;-66
2023/01/04 04:48:22;;;;;;;11.20;7.95;;;;;;;6.60;73.05;101681.06;4178708;28;20044;-66
2023/01/04 04:50:25;;;;;;;12.38;8.25;;;;;;;6.45;73.72;101681.19;4198272;28;20052;-66
2023/01/04 04:52:28;;;;;;;14.90;8.60;;;;;;;6.46;73.61;101672.59;4203895;28;20067;-66
2023/01/04 04:54:31;;;;;;;13.82;9.20;;;;;;;6.42;73.62;101670.66;4192718;28;20056;-66
2023/01/04 04:56:35;;;;;;;14.88;9.93;;;;;;;6.39;74.19;101672.22;4188113;28;20383;-66
2023/01/04 04:58:40;;;;;;;12.60;9.23;;;;;;;6.29;74.07;101674.34;4197239;28;20032;-66
2023/01/04 05:00:43;;;;;;;14.98;9.75;;;;;;;6.27;74.71;101663.03;4196248;28;20036;-66
2023/01/04 05:02:45;;;;;;;13.52;9.02;;;;;;;6.24;75.05;101665.47;4196603;28;20044;-66
2023/01/04 05:04:48;;;;;;;15.27;10.35;;;;;;;6.27;75.07;101673.34;4188326;28;20083;-66
2023/01/04 05:06:52;;;;;;;15.70;11.15;;;;;;;6.23;75.46;101665.38;4204459;28;20044;-66
2023/01/04 05:08:54;;;;;;;18.88;11.57;;;;;;;6.23;75.29;101668.84;4195673;28;20052;-66
2023/01/04 05:10:57;;;;;;;19.33;11.65;;;;;;;6.38;75.26;101673.94;4197467;28;20532;-66
2023/01/04 05:12:59;;;;;;;17.00;11.05;;;;;;;6.34;75.27;101672.00;4197363;28;20055;-66
2023/01/04 05:15:04;;;;;;;18.90;13.65;;;;;;;6.28;75.21;101676.84;4194935;28;20478;-66
2023/01/04 05:17:06;;;;;;;18.73;12.20;;;;;;;6.25;75.06;101675.00;4196690;28;20033;-66
2023/01/04 05:19:09;;;;;;;19.02;12.75;;;;;;;6.23;75.45;101667.97;4196686;28;20664;-66
2023/01/04 05:21:12;;;;;;;16.48;11.32;;;;;;;6.29;75.66;101664.00;4195204;28;20094;-66
2023/01/04 05:23:22;;;;;;;19.33;13.25;;;;;;;6.24;75.77;101665.47;4178923;28;20045;-66
2023/01/04 05:25:25;;;;;;;17.70;12.43;;;;;;;6.22;76.06;101667.09;4189313;28;20036;-66
2023/01/04 05:27:27;;;;;;;19.30;12.60;;;;;;;6.25;76.15;101658.59;4195209;28;20048;-66
2023/01/04 05:32:00;;;;;;;18.02;12.57;;;;;;;6.37;75.70;101660.94;4149243;28;20405;-66
2023/01/04 05:34:03;;;;;;;20.90;13.25;;;;;;;6.42;75.90;101654.28;4195269;28;20040;-66
2023/01/04 05:36:06;;;;;;;16.65;12.27;;;;;;;6.45;75.40;101662.19;4193711;28;20448;-66
2023/01/04 05:38:09;;;;;;;17.98;12.25;;;;;;;6.43;75.80;101650.91;4195163;28;20044;-66
2023/01/04 05:40:12;;;;;;;20.10;13.30;;;;;;;6.41;76.30;101642.16;4195027;28;20090;-66
2023/01/04 05:42:27;;;;;;;22.00;13.63;;;;;;;6.45;76.37;101650.19;4196157;28;20469;-66
2023/01/04 05:44:30;;;;;;;21.85;14.18;;;;;;;6.56;76.09;101636.91;4193131;28;20039;-67
2023/01/04 05:46:33;;;;;;;23.27;13.95;;;;;;;6.52;75.94;101640.16;4196343;28;20467;-66
2023/01/04 05:48:37;;;;;;;21.00;13.85;;;;;;;6.49;75.98;101632.25;4195545;28;20040;-66
2023/01/04 05:50:40;;;;;;;22.05;15.20;;;;;;;6.56;75.86;101635.19;4194416;28;20044;-66
2023/01/04 05:52:45;;;;;;;20.35;13.85;;;;;;;6.49;75.98;101627.94;4195857;28;20036;-66
2023/01/04 05:54:48;;;;;;;20.98;13.80;;;;;;;6.57;75.98;101630.91;4195376;28;21059;-66
2023/01/04 05:56:51;;;;;;;20.30;13.20;;;;;;;6.50;76.48;101629.75;4194730;28;20492;-66
2023/01/04 05:58:53;;;;;;;20.38;14.43;;;;;;;6.54;76.47;101625.59;4196145;28;20445;-66
2023/01/04 06:00:56;;;;;;;20.75;14.38;;;;;;;6.41;76.42;101637.91;4195289;28;20119;-66
2023/01/04 06:02:59;;;;;;;17.73;13.52;;;;;;;6.53;76.61;101629.00;4196292;28;20040;-66
2023/01/04 06:05:05;;;;;;;20.30;14.40;;;;;;;6.57;76.98;101630.91;4194855;28;20035;-66
2023/01/04 06:07:07;;;;;;;18.52;12.93;;;;;;;6.54;76.71;101629.09;4194904;28;20555;-66
2023/01/04 06:09:10;;;;;;;22.08;14.32;;;;;;;6.62;76.64;101616.53;4195799;28;20036;-66
2023/01/04 06:11:13;;;;;;;18.60;12.65;;;;;;;6.61;76.48;101609.59;4195597;28;20045;-66
2023/01/04 06:13:16;;;;;;;21.65;14.80;;;;;;;6.69;76.82;101599.63;4194131;28;20043;-66
2023/01/04 06:15:19;;;;;;;22.02;14.23;;;;;;;6.71;76.37;101601.47;4195493;28;20390;-66
2023/01/04 06:17:21;;;;;;;19.58;13.70;;;;;;;6.75;75.69;101587.00;4196048;28;20086;-66
2023/01/04 06:19:25;;;;;;;19.77;13.13;;;;;;;6.78;75.95;101588.03;4194971;28;20044;-66
2023/01/04 06:21:29;;;;;;;19.08;12.90;;;;;;;6.69;76.35;101592.75;4199261;28;20491;-66
2023/01/04 06:23:32;;;;;;;17.60;11.95;;;;;;;6.73;76.41;101589.53;4197580;28;20037;-66
2023/01/04 06:25:35;;;;;;;21.45;15.13;;;;;;;6.76;76.07;101600.00;4208994;28;20052;-66
2023/01/04 06:27:38;;;;;;;21.38;13.30;;;;;;;6.78;75.91;101593.19;4197106;28;20079;-66
2023/01/04 06:29:40;;;;;;;19.98;14.38;;;;;;;6.74;76.13;101592.97;4197732;28;20033;-66
2023/01/04 06:31:43;;;;;;;18.27;12.88;;;;;;;6.68;76.19;101596.16;4200076;28;20044;-66
2023/01/04 06:33:49;;;;;;;23.27;13.40;;;;;;;6.74;76.16;101598.16;4198382;28;20060;-66
2023/01/04 06:35:55;;;;;;;19.15;12.77;;;;;;;6.71;76.47;101595.44;4197281;28;20090;-66
2023/01/04 06:37:59;;;;;;;19.35;13.02;;;;;;;6.70;76.21;101601.41;4196857;28;20426;-66
2023/01/04 06:40:02;;;;;;;17.73;11.80;;;;;;;6.76;76.22;101612.94;4198701;28;20090;-66
2023/01/04 06:42:05;;;;;;;17.52;10.48;;;;;;;6.77;76.66;101603.47;4197499;28;20273;-66
2023/01/04 06:44:09;;;;;;;17.58;12.48;;;;;;;6.85;76.55;101602.16;4198164;28;20051;-66
2023/01/04 06:46:12;;;;;;;17.73;11.95;;;;;;;6.97;75.31;101601.84;4198992;28;20029;-66
2023/01/04 06:48:15;;;;;;;19.48;11.00;;;;;;;6.84;75.75;101592.59;4199078;28;20032;-66
2023/01/04 06:50:20;;;;;;;17.65;11.68;;;;;;;6.84;75.81;101608.13;4198582;28;20041;-65
2023/01/04 06:52:23;;;;;;;15.95;11.90;;;;;;;6.87;75.66;101608.25;4197830;28;20135;-65
2023/01/04 06:54:28;;;;;;;16.38;11.25;;;;;;;6.79;75.89;101610.47;4198071;28;20068;-66
2023/01/04 06:56:32;;;;;;;14.95;11.32;;;;;;;6.84;75.99;101599.50;4196974;28;20040;-66
2023/01/04 06:58:35;;;;;;;17.48;12.20;;;;;;;6.90;76.38;101605.81;4199152;28;20040;-66
2023/01/04 07:00:38;;;;;;;15.52;10.32;;;;;;;6.98;76.17;101604.50;4201053;28;20048;-66
2023/01/04 07:02:41;;;;;;;19.00;11.07;;;;;;;7.11;75.43;101589.53;4202244;28;20379;-66
2023/01/04 07:05:04;;;;;;;14.45;10.27;;;;;;;7.05;75.61;101591.84;4197471;28;20044;-65
2023/01/04 07:07:07;;;;;;;15.20;11.25;;;;;;;7.06;75.53;101591.03;4214641;28;20040;-65
2023/01/04 07:09:10;;;;;;;16.38;10.32;;;;;;;7.00;75.80;101578.72;4209147;28;20033;-66
2023/01/04 07:11:14;;;;;;;15.57;9.85;;;;;;;7.02;75.15;101586.53;4206537;28;20044;-65
2023/01/04 07:13:17;;;;;;;14.00;8.77;;;;;;;7.13;77.65;101580.16;4205035;28;20047;-62
2023/01/04 07:15:19;;;;;;;15.10;10.52;;;;;;;7.28;76.86;101575.69;4206644;28;20396;-62
2023/01/04 07:17:42;;;;;;;14.85;8.70;;;;;;;7.30;76.04;101568.00;4200569;28;20044;-65
2023/01/04 07:19:45;;;;;;;15.45;9.50;;;;;;;7.31;75.44;101565.47;4200137;28;20036;-66
2023/01/04 07:21:48;;;;;;;13.27;8.75;;;;;;;7.18;75.63;101572.63;4195716;28;20108;-66
2023/01/04 07:23:50;;;;;;;12.98;9.15;;;;;;;7.25;75.45;101565.19;4195095;28;20044;-67
2023/01/04 07:25:53;;;;;;;12.48;8.30;;;;;;;7.13;75.57;101568.13;4195010;28;20039;-66
2023/01/04 07:27:57;;;;;;;13.10;8.10;;;;;;;7.11;75.80;101566.28;4196792;28;20135;-66
2023/01/04 07:30:00;;;;;;;12.02;8.52;;;;;;;7.09;75.41;101570.50;4200458;28;20036;-66
2023/01/04 07:32:04;;;;;;;11.38;6.93;;;;;;;7.16;75.45;101570.84;4196356;28;20076;-66
2023/01/04 07:34:17;;;;;;;13.75;8.50;;;;;;;7.15;75.48;101561.34;4190170;28;20047;-66
2023/01/04 07:36:19;;;;;;;12.30;7.95;;;;;;;7.23;75.45;101550.44;4196160;28;20029;-66
2023/01/04 07:38:22;;;;;;;15.18;7.28;;;;;;;7.32;75.04;101537.94;4196858;28;20142;-67
2023/01/04 07:40:26;;;;;;;14.52;7.93;;;;;;;7.27;75.47;101521.31;4195518;28;20418;-67
2023/01/04 07:42:30;;;;;;;11.20;7.90;;;;;;;7.31;75.23;101503.41;4197880;28;20127;-67
2023/01/04 07:44:34;;;;;;;11.63;7.13;;;;;;;7.26;74.77;101523.00;4197861;28;20033;-67
2023/01/04 07:46:37;;;;;;;11.85;7.30;;;;;;;7.13;75.38;101534.50;4194133;28;20047;-67
2023/01/04 07:48:40;;;;;;;11.10;7.25;;;;;;;7.08;75.59;101527.34;4195905;28;20048;-67
2023/01/04 07:50:45;;;;;;;9.10;6.32;;;;;;;7.21;75.68;101519.31;4197860;28;20028;-67
2023/01/04 07:52:48;;;;;;;10.38;6.25;;;;;;;7.23;75.15;101525.47;4193033;28;20170;-67
2023/01/04 07:54:50;;;;;;;10.48;6.50;;;;;;;7.30;75.47;101539.53;4199065;28;20047;-68
2023/01/04 07:56:53;;;;;;;10.90;5.90;;;;;;;7.28;75.77;101529.13;4197848;28;20493;-68
2023/01/04 07:58:58;;;;;;;8.07;5.18;;;;;;;7.31;75.06;101521.50;4198005;28;20083;-68
2023/01/04 08:01:07;;;;;;;8.80;4.90;;;;;;;7.33;75.50;101521.59;4187994;28;20522;-68
2023/01/04 08:03:10;;;;;;;11.85;5.72;;;;;;;7.37;75.56;101507.09;4209807;28;20483;-68
2023/01/04 08:05:13;;;;;;;9.25;5.30;;;;;;;7.46;74.98;101512.66;4190518;28;20071;-69
2023/01/04 08:07:16;;;;;;;8.05;4.35;;;;;;;7.24;75.48;101506.56;4194697;28;20042;-68
2023/01/04 08:09:19;;;;;;;10.52;4.70;;;;;;;7.30;75.21;101513.66;4199269;28;20045;-68
2023/01/04 08:11:23;;;;;;;10.20;5.25;;;;;;;7.36;74.91;101508.81;4169291;28;1067663;-69
2023/01/04 08:13:26;;;;;;;8.50;4.85;;;;;;;7.29;75.32;101519.69;4209139;28;20036;-69
2023/01/04 08:15:29;;;;;;;6.57;4.60;;;;;;;7.37;75.39;101518.31;4201685;28;20346;-68
2023/01/04 08:17:33;;;;;;;10.82;5.20;;;;;;;7.39;75.48;101521.88;4199210;28;20131;-68
2023/01/04 08:19:36;;;;;;;9.93;5.70;;;;;;;7.35;75.38;101514.78;4200099;28;20398;-68
2023/01/04 08:21:39;;;;;;;9.52;5.18;;;;;;;7.51;74.79;101527.56;4196336;28;20037;-68
2023/01/04 08:23:42;;;;;;;8.20;5.70;;;;;;;7.46;74.80;101528.19;4193771;28;20505;-68
2023/01/04 08:25:45;;;;;;;9.10;4.30;;;;;;;7.39;75.11;101542.56;4195051;28;20051;-69
2023/01/04 08:27:48;;;;;;;14.15;7.10;;;;;;;7.32;75.14;101549.16;4177168;28;20048;-69
2023/01/04 08:29:51;;;;;;;11.10;5.07;;;;;;;7.37;75.25;101554.53;4195661;28;20048;-68
2023/01/04 08:31:54;;;;;;;6.63;4.28;;;;;;;7.32;75.27;101559.50;4194202;28;20036;-68
2023/01/04 08:34:01;;;;;;;8.98;4.20;;;;;;;7.39;75.18;101563.25;4190800;28;20123;-70
2023/01/04 08:36:09;;;;;;;11.82;5.13;;;;;;;7.47;74.98;101571.34;4193671;28;20402;-69
2023/01/04 08:38:12;;;;;;;7.63;4.57;;;;;;;7.43;75.17;101560.00;4191724;28;20033;-64
2023/01/04 08:40:34;;;;;;;7.97;3.85;;;;;;;7.45;75.23;101558.34;4203555;28;20490;-64
2023/01/04 08:42:58;;;;;;;8.82;4.07;;;;;;;7.41;74.87;101555.56;4192770;28;20120;-65
2023/01/04 08:45:01;;;;;;;6.40;4.05;;;;;;;7.51;75.09;101556.03;4193416;28;20571;-63
2023/01/04 08:47:04;;;;;;;7.13;3.70;;;;;;;7.51;74.97;101548.25;4199397;28;20032;-63
2023/01/04 08:49:09;;;;;;;7.25;3.35;;;;;;;7.38;75.22;101558.88;4198685;28;20522;-63
2023/01/04 08:51:14;;;;;;;7.28;3.58;;;;;;;7.40;75.35;101554.66;4198825;28;20041;-63
2023/01/04 08:53:17;;;;;;;5.78;3.00;;;;;;;7.54;74.88;101551.81;4200487;28;20044;-63
2023/01/04 08:55:20;;;;;;;5.45;2.72;;;;;;;7.49;75.49;101539.56;4200528;28;20230;-63
2023/01/04 08:57:25;;;;;;;6.65;3.25;;;;;;;7.53;74.82;101535.38;4181679;28;20033;-63
2023/01/04 08:59:29;;;;;;;4.60;2.95;;;;;;;7.68;75.09;101528.31;4194165;28;20036;-64
2023/01/04 09:01:35;;;;;;;5.50;3.20;;;;;;;7.63;75.26;101522.03;4197294;28;20093;-64
2023/01/04 09:03:38;;;;;;;6.25;2.90;;;;;;;7.58;75.00;101520.97;4178655;28;20041;-64
2023/01/04 09:05:47;;;;;;;7.82;2.90;;;;;;;7.68;75.03;101520.53;4193244;28;20103;-64
2023/01/04 09:07:50;;;;;;;4.47;2.55;;;;;;;7.56;75.10;101508.78;4189427;28;20524;-64
2023/01/04 09:09:53;;;;;;;5.13;2.80;;;;;;;7.66;75.03;101514.41;4194132;28;20048;-65
2023/01/04 09:11:58;;;;;;;7.20;3.13;;;;;;;7.76;74.93;101507.94;4195180;28;20055;-65
2023/01/04 09:14:01;;;;;;;5.20;3.03;;;;;;;7.80;74.90;101506.38;4191475;28;20364;-65
2023/01/04 09:16:11;;;;;;;6.15;3.22;;;;;;;7.82;74.75;101499.53;4202811;28;20490;-64
2023/01/04 09:18:15;;;;;;;6.05;2.92;;;;;;;7.72;75.19;101502.56;4196549;28;20399;-63
2023/01/04 09:20:34;;;;;;;4.25;2.47;;;;;;;7.79;75.04;101499.41;4191746;28;20043;-63
2023/01/04 09:22:39;;;;;;;6.50;2.90;;;;;;;7.76;75.18;101501.88;4194820;28;20055;-63
2023/01/04 09:24:41;;;;;;;5.15;2.58;;;;;;;7.78;74.96;101501.13;4193834;28;20037;-64
2023/01/04 09:26:46;;;;;;;6.80;2.67;;;;;;;7.77;75.13;101513.97;4195423;28;20035;-64
2023/01/04 09:28:49;;;;;;;3.90;2.78;;;;;;;7.83;74.81;101522.91;4200171;28;20032;-64
2023/01/04 09:30:52;;;;;;;5.60;2.30;;;;;;;7.93;74.27;101512.91;4198754;28;20041;-64
2023/01/04 09:32:55;;;;;;;3.53;2.38;;;;;;;7.90;74.47;101520.56;4200181;28;20067;-63
2023/01/04 09:34:58;;;;;;;8.38;2.70;;;;;;;7.92;74.10;101511.16;4194299;28;20552;-63
2023/01/04 09:37:01;;;;;;;5.70;2.03;;;;;;;7.96;73.75;101513.06;4201215;28;20209;-63
2023/01/04 09:39:05;;;;;;;3.80;2.00;;;;;;;7.84;73.68;101505.66;4196696;28;20059;-64
2023/01/04 09:41:18;;;;;;;3.95;1.92;;;;;;;7.88;74.24;101497.19;4202138;28;20072;-64
2023/01/04 09:43:24;;;;;;;5.07;2.55;;;;;;;7.94;74.39;101504.34;4189292;28;20143;-64
2023/01/04 09:45:28;;;;;;;4.70;2.10;;;;;;;7.89;74.05;101498.97;4196033;28;20059;-64
2023/01/04 09:47:37;;;;;;;4.10;2.10;;;;;;;7.94;73.92;101496.56;4191253;28;20044;-63
2023/01/04 09:49:45;;;;;;;5.80;2.53;;;;;;;8.06;73.58;101472.88;4199198;28;20044;-64
2023/01/04 09:51:57;;;;;;;4.93;2.38;;;;;;;7.94;73.67;101481.91;4197010;28;20052;-64
2023/01/04 09:54:05;;;;;;;5.78;2.05;;;;;;;8.09;73.62;101480.78;4192502;28;20032;-64
2023/01/04 09:56:18;;;;;;;2.92;1.80;;;;;;;8.07;73.86;101474.66;4179385;28;20400;-64
2023/01/04 09:58:26;;;;;;;5.60;2.08;;;;;;;7.98;73.67;101499.34;4179258;28;20056;-64
2023/01/04 10:00:34;;;;;;;3.33;1.95;;;;;;;8.01;73.82;101494.28;4209184;28;20143;-64
2023/01/04 10:02:49;;;;;;;6.55;1.98;;;;;;;7.95;73.92;101481.09;4198755;28;20043;-64
2023/01/04 10:04:52;;;;;;;4.40;1.95;;;;;;;7.96;73.78;101488.06;4201462;28;20040;-64
2023/01/04 10:06:55;;;;;;;5.00;1.80;;;;;;;8.09;73.96;101480.78;4195443;28;20043;-64
2023/01/04 10:09:11;;;;;;;5.60;1.77;;;;;;;8.10;73.89;101483.44;4199525;28;20106;-64
2023/01/04 10:11:35;;;;;;;1.60;1.30;;;;;;;8.16;73.82;101487.97;4205952;28;20498;-64
2023/01/04 10:14:01;;;;;;;5.22;1.77;;;;;;;8.21;73.87;101486.47;4181935;28;20139;-64
2023/01/04 10:16:14;;;;;;;4.18;1.75;;;;;;;8.14;73.77;101492.22;4187794;28;20037;-64
2023/01/04 10:18:37;;;;;;;8.63;2.05;;;;;;;8.13;73.75;101495.63;4189171;28;20082;-64
2023/01/04 10:21:28;;;;;;;3.35;1.85;;;;;;;8.22;73.27;101475.28;4193536;28;20432;-64
2023/01/04 10:23:52;;;;;;;6.63;2.03;;;;;;;8.15;73.51;101476.75;4202943;28;20043;-64
2023/01/04 10:25:57;;;;;;;3.35;1.50;;;;;;;8.22;73.59;101467.53;4207779;28;20069;-64
2023/01/04 10:28:14;;;;;;;7.65;1.92;;;;;;;8.35;73.44;101464.59;4194691;28;20025;-64
2023/01/04 10:30:30;;;;;;;6.10;1.83;;;;;;;8.26;73.45;101468.53;4197706;28;20041;-64
2023/01/04 10:32:35;;;;;;;;;;;;;;;8.24;73.96;101460.69;4189459;28;20040;-64